sensor_id;sensor_type;location;lat;lon;timestamp;temperature;humidity
33139;DHT22;19501;50.948;5.316;2024-01-07T00:00:20;4.00;99.90
33139;DHT22;19501;50.948;5.316;2024-01-07T00:02:46;3.90;99.90
33139;DHT22;19501;50.948;5.316;2024-01-07T00:05:12;3.90;99.90
33139;DHT22;19501;50.948;5.316;2024-01-07T00:07:37;4.00;99.90
33139;DHT22;19501;50.948;5.316;2024-01-07T00:10:03;3.90;99.90
33139;DHT22;19501;50.948;5.316;2024-01-07T00:12:30;4.00;99.90
33139;DHT22;19501;50.948;5.316;2024-01-07T00:14:56;4.10;99.90
33139;DHT22;19501;50.948;5.316;2024-01-07T00:17:22;4.00;99.90
33139;DHT22;19501;50.948;5.316;2024-01-07T00:19:48;3.90;99.90
33139;DHT22;19501;50.948;5.316;2024-01-07T00:22:14;4.00;99.90
33139;DHT22;19501;50.948;5.316;2024-01-07T00:24:39;4.00;99.90
33139;DHT22;19501;50.948;5.316;2024-01-07T00:27:05;3.90;99.90
33139;DHT22;19501;50.948;5.316;2024-01-07T00:29:31;3.90;99.90
33139;DHT22;19501;50.948;5.316;2024-01-07T00:31:56;3.90;99.90
33139;DHT22;19501;50.948;5.316;2024-01-07T00:34:22;3.90;99.90
33139;DHT22;19501;50.948;5.316;2024-01-07T00:36:48;3.80;99.90
33139;DHT22;19501;50.948;5.316;2024-01-07T00:39:13;3.90;99.90
33139;DHT22;19501;50.948;5.316;2024-01-07T00:41:39;3.90;99.90
33139;DHT22;19501;50.948;5.316;2024-01-07T00:44:05;3.90;99.90
33139;DHT22;19501;50.948;5.316;2024-01-07T00:46:30;3.70;99.90
33139;DHT22;19501;50.948;5.316;2024-01-07T00:48:56;3.70;99.90
33139;DHT22;19501;50.948;5.316;2024-01-07T00:51:21;3.80;99.90
33139;DHT22;19501;50.948;5.316;2024-01-07T00:53:47;3.80;99.90
33139;DHT22;19501;50.948;5.316;2024-01-07T00:56:13;3.80;99.90
33139;DHT22;19501;50.948;5.316;2024-01-07T00:58:38;4.00;99.90
33139;DHT22;19501;50.948;5.316;2024-01-07T01:01:06;4.10;99.90
33139;DHT22;19501;50.948;5.316;2024-01-07T01:03:31;4.10;99.90
33139;DHT22;19501;50.948;5.316;2024-01-07T01:05:58;4.00;99.90
33139;DHT22;19501;50.948;5.316;2024-01-07T01:08:25;4.10;99.90
33139;DHT22;19501;50.948;5.316;2024-01-07T01:10:51;4.20;99.90
33139;DHT22;19501;50.948;5.316;2024-01-07T01:13:17;4.20;99.90
33139;DHT22;19501;50.948;5.316;2024-01-07T01:15:45;4.20;99.90
33139;DHT22;19501;50.948;5.316;2024-01-07T01:18:10;3.90;99.90
33139;DHT22;19501;50.948;5.316;2024-01-07T01:20:36;3.90;99.90
33139;DHT22;19501;50.948;5.316;2024-01-07T01:23:02;3.70;99.90
33139;DHT22;19501;50.948;5.316;2024-01-07T01:25:27;3.70;99.90
33139;DHT22;19501;50.948;5.316;2024-01-07T01:27:56;3.70;99.90
33139;DHT22;19501;50.948;5.316;2024-01-07T01:30:22;3.70;99.90
33139;DHT22;19501;50.948;5.316;2024-01-07T01:32:47;3.60;99.90
33139;DHT22;19501;50.948;5.316;2024-01-07T01:35:13;3.70;99.90
33139;DHT22;19501;50.948;5.316;2024-01-07T01:37:39;3.70;99.90
33139;DHT22;19501;50.948;5.316;2024-01-07T01:40:04;3.70;99.90
33139;DHT22;19501;50.948;5.316;2024-01-07T01:42:30;3.70;99.90
33139;DHT22;19501;50.948;5.316;2024-01-07T01:44:56;3.70;99.90
33139;DHT22;19501;50.948;5.316;2024-01-07T01:47:25;3.80;99.90
33139;DHT22;19501;50.948;5.316;2024-01-07T01:49:50;3.80;99.90
33139;DHT22;19501;50.948;5.316;2024-01-07T01:52:16;3.70;99.90
33139;DHT22;19501;50.948;5.316;2024-01-07T01:54:42;3.60;99.90
33139;DHT22;19501;50.948;5.316;2024-01-07T01:57:13;3.60;99.90
33139;DHT22;19501;50.948;5.316;2024-01-07T01:59:42;3.40;99.90
33139;DHT22;19501;50.948;5.316;2024-01-07T02:02:08;3.50;99.90
33139;DHT22;19501;50.948;5.316;2024-01-07T02:04:34;3.60;99.90
33139;DHT22;19501;50.948;5.316;2024-01-07T02:06:59;3.50;99.90
33139;DHT22;19501;50.948;5.316;2024-01-07T02:09:25;3.60;99.90
33139;DHT22;19501;50.948;5.316;2024-01-07T02:12:03;3.40;99.90
33139;DHT22;19501;50.948;5.316;2024-01-07T02:14:32;3.40;99.90
33139;DHT22;19501;50.948;5.316;2024-01-07T02:16:57;3.40;99.90
33139;DHT22;19501;50.948;5.316;2024-01-07T02:19:23;3.40;99.90
33139;DHT22;19501;50.948;5.316;2024-01-07T02:21:52;3.40;99.90
33139;DHT22;19501;50.948;5.316;2024-01-07T02:24:18;3.50;99.90
33139;DHT22;19501;50.948;5.316;2024-01-07T02:26:44;3.40;99.90
33139;DHT22;19501;50.948;5.316;2024-01-07T02:29:10;3.40;99.90
33139;DHT22;19501;50.948;5.316;2024-01-07T02:31:35;3.50;99.90
33139;DHT22;19501;50.948;5.316;2024-01-07T02:34:01;3.50;99.90
33139;DHT22;19501;50.948;5.316;2024-01-07T02:36:26;3.70;99.90
33139;DHT22;19501;50.948;5.316;2024-01-07T02:38:52;3.50;99.90
33139;DHT22;19501;50.948;5.316;2024-01-07T02:41:18;3.40;99.90
33139;DHT22;19501;50.948;5.316;2024-01-07T02:43:45;3.40;99.90
33139;DHT22;19501;50.948;5.316;2024-01-07T02:46:11;3.50;99.90
33139;DHT22;19501;50.948;5.316;2024-01-07T02:48:36;3.50;99.90
33139;DHT22;19501;50.948;5.316;2024-01-07T02:51:02;3.60;99.90
33139;DHT22;19501;50.948;5.316;2024-01-07T02:53:30;3.70;99.90
33139;DHT22;19501;50.948;5.316;2024-01-07T02:55:56;3.60;99.90
33139;DHT22;19501;50.948;5.316;2024-01-07T02:58:22;3.70;99.90
33139;DHT22;19501;50.948;5.316;2024-01-07T03:00:47;3.60;99.90
33139;DHT22;19501;50.948;5.316;2024-01-07T03:03:13;3.50;99.90
33139;DHT22;19501;50.948;5.316;2024-01-07T03:05:39;3.60;99.90
33139;DHT22;19501;50.948;5.316;2024-01-07T03:08:06;3.60;99.90
33139;DHT22;19501;50.948;5.316;2024-01-07T03:10:33;3.70;99.90
33139;DHT22;19501;50.948;5.316;2024-01-07T03:12:59;3.60;99.90
33139;DHT22;19501;50.948;5.316;2024-01-07T03:15:25;3.50;99.90
33139;DHT22;19501;50.948;5.316;2024-01-07T03:17:51;3.40;99.90
33139;DHT22;19501;50.948;5.316;2024-01-07T03:20:16;3.50;99.90
33139;DHT22;19501;50.948;5.316;2024-01-07T03:22:42;3.50;99.90
33139;DHT22;19501;50.948;5.316;2024-01-07T03:25:08;3.60;99.90
33139;DHT22;19501;50.948;5.316;2024-01-07T03:27:33;3.60;99.90
33139;DHT22;19501;50.948;5.316;2024-01-07T03:29:59;3.50;99.90
33139;DHT22;19501;50.948;5.316;2024-01-07T03:32:25;3.60;99.90
33139;DHT22;19501;50.948;5.316;2024-01-07T03:34:50;3.60;99.90
33139;DHT22;19501;50.948;5.316;2024-01-07T03:37:16;3.40;99.90
33139;DHT22;19501;50.948;5.316;2024-01-07T03:39:43;3.30;99.90
33139;DHT22;19501;50.948;5.316;2024-01-07T03:42:09;3.30;99.90
33139;DHT22;19501;50.948;5.316;2024-01-07T03:44:37;3.50;99.90
33139;DHT22;19501;50.948;5.316;2024-01-07T03:47:04;3.40;99.90
33139;DHT22;19501;50.948;5.316;2024-01-07T03:49:30;3.40;99.90
33139;DHT22;19501;50.948;5.316;2024-01-07T03:51:56;3.50;99.90
33139;DHT22;19501;50.948;5.316;2024-01-07T03:54:21;3.40;99.90
33139;DHT22;19501;50.948;5.316;2024-01-07T03:56:47;3.60;99.90
33139;DHT22;19501;50.948;5.316;2024-01-07T03:59:13;3.50;99.90
33139;DHT22;19501;50.948;5.316;2024-01-07T04:01:38;3.40;99.90
33139;DHT22;19501;50.948;5.316;2024-01-07T04:04:04;3.30;99.90
33139;DHT22;19501;50.948;5.316;2024-01-07T04:06:32;3.30;99.90
33139;DHT22;19501;50.948;5.316;2024-01-07T04:08:58;3.20;99.90
33139;DHT22;19501;50.948;5.316;2024-01-07T04:11:23;3.30;99.90
33139;DHT22;19501;50.948;5.316;2024-01-07T04:13:49;3.50;99.90
33139;DHT22;19501;50.948;5.316;2024-01-07T04:16:21;3.60;99.90
33139;DHT22;19501;50.948;5.316;2024-01-07T04:18:47;3.70;99.90
33139;DHT22;19501;50.948;5.316;2024-01-07T04:21:13;3.70;99.90
33139;DHT22;19501;50.948;5.316;2024-01-07T04:23:39;3.50;99.90
33139;DHT22;19501;50.948;5.316;2024-01-07T04:26:09;3.40;99.90
33139;DHT22;19501;50.948;5.316;2024-01-07T04:28:34;3.30;99.90
33139;DHT22;19501;50.948;5.316;2024-01-07T04:31:00;3.20;99.90
33139;DHT22;19501;50.948;5.316;2024-01-07T04:33:26;3.30;99.90
33139;DHT22;19501;50.948;5.316;2024-01-07T04:35:54;3.30;99.90
33139;DHT22;19501;50.948;5.316;2024-01-07T04:38:23;3.30;99.90
33139;DHT22;19501;50.948;5.316;2024-01-07T04:40:50;3.40;99.90
33139;DHT22;19501;50.948;5.316;2024-01-07T04:43:17;3.30;99.90
33139;DHT22;19501;50.948;5.316;2024-01-07T04:45:42;3.40;99.90
33139;DHT22;19501;50.948;5.316;2024-01-07T04:48:08;3.20;99.90
33139;DHT22;19501;50.948;5.316;2024-01-07T04:50:34;3.20;99.90
33139;DHT22;19501;50.948;5.316;2024-01-07T04:52:59;3.20;99.90
33139;DHT22;19501;50.948;5.316;2024-01-07T04:55:25;3.30;99.90
33139;DHT22;19501;50.948;5.316;2024-01-07T04:57:50;3.20;99.90
33139;DHT22;19501;50.948;5.316;2024-01-07T05:00:16;3.20;99.90
33139;DHT22;19501;50.948;5.316;2024-01-07T05:02:42;3.30;99.90
33139;DHT22;19501;50.948;5.316;2024-01-07T05:05:08;3.30;99.90
33139;DHT22;19501;50.948;5.316;2024-01-07T05:07:34;3.20;99.90
33139;DHT22;19501;50.948;5.316;2024-01-07T05:10:00;3.20;99.90
33139;DHT22;19501;50.948;5.316;2024-01-07T05:12:28;3.30;99.90
33139;DHT22;19501;50.948;5.316;2024-01-07T05:14:53;3.30;99.90
33139;DHT22;19501;50.948;5.316;2024-01-07T05:17:19;3.30;99.90
33139;DHT22;19501;50.948;5.316;2024-01-07T05:19:45;3.30;99.90
33139;DHT22;19501;50.948;5.316;2024-01-07T05:22:11;3.40;99.90
33139;DHT22;19501;50.948;5.316;2024-01-07T05:24:37;3.40;99.90
33139;DHT22;19501;50.948;5.316;2024-01-07T05:27:04;3.30;99.90
33139;DHT22;19501;50.948;5.316;2024-01-07T05:29:30;3.30;99.90
33139;DHT22;19501;50.948;5.316;2024-01-07T05:31:56;3.30;99.90
33139;DHT22;19501;50.948;5.316;2024-01-07T05:34:21;3.30;99.90
33139;DHT22;19501;50.948;5.316;2024-01-07T05:36:47;3.20;99.90
33139;DHT22;19501;50.948;5.316;2024-01-07T05:39:13;3.30;99.90
33139;DHT22;19501;50.948;5.316;2024-01-07T05:41:38;3.20;99.90
33139;DHT22;19501;50.948;5.316;2024-01-07T05:44:06;3.10;99.90
33139;DHT22;19501;50.948;5.316;2024-01-07T05:46:32;3.10;99.90
33139;DHT22;19501;50.948;5.316;2024-01-07T05:48:58;3.20;99.90
33139;DHT22;19501;50.948;5.316;2024-01-07T05:51:24;3.20;99.90
33139;DHT22;19501;50.948;5.316;2024-01-07T05:53:50;3.30;99.90
33139;DHT22;19501;50.948;5.316;2024-01-07T05:56:15;3.30;99.90
33139;DHT22;19501;50.948;5.316;2024-01-07T05:58:43;3.10;99.90
33139;DHT22;19501;50.948;5.316;2024-01-07T06:01:09;3.10;99.90
33139;DHT22;19501;50.948;5.316;2024-01-07T06:03:35;3.00;99.90
33139;DHT22;19501;50.948;5.316;2024-01-07T06:06:00;3.10;99.90
33139;DHT22;19501;50.948;5.316;2024-01-07T06:08:26;3.00;99.90
33139;DHT22;19501;50.948;5.316;2024-01-07T06:10:52;3.00;99.90
33139;DHT22;19501;50.948;5.316;2024-01-07T06:13:17;3.00;99.90
33139;DHT22;19501;50.948;5.316;2024-01-07T06:15:43;3.10;99.90
33139;DHT22;19501;50.948;5.316;2024-01-07T06:18:09;3.20;99.90
33139;DHT22;19501;50.948;5.316;2024-01-07T06:20:35;3.00;99.90
33139;DHT22;19501;50.948;5.316;2024-01-07T06:23:00;3.10;99.90
33139;DHT22;19501;50.948;5.316;2024-01-07T06:25:26;3.30;99.90
33139;DHT22;19501;50.948;5.316;2024-01-07T06:27:54;3.10;99.90
33139;DHT22;19501;50.948;5.316;2024-01-07T06:30:19;3.10;99.90
33139;DHT22;19501;50.948;5.316;2024-01-07T06:32:45;3.10;99.90
33139;DHT22;19501;50.948;5.316;2024-01-07T06:35:11;3.00;99.90
33139;DHT22;19501;50.948;5.316;2024-01-07T06:37:37;3.00;99.90
33139;DHT22;19501;50.948;5.316;2024-01-07T06:40:03;2.90;99.90
33139;DHT22;19501;50.948;5.316;2024-01-07T06:42:29;2.80;99.90
33139;DHT22;19501;50.948;5.316;2024-01-07T06:44:54;2.90;99.90
33139;DHT22;19501;50.948;5.316;2024-01-07T06:47:22;2.90;99.90
33139;DHT22;19501;50.948;5.316;2024-01-07T06:49:48;3.00;99.90
33139;DHT22;19501;50.948;5.316;2024-01-07T06:52:13;2.90;99.90
33139;DHT22;19501;50.948;5.316;2024-01-07T06:54:39;2.90;99.90
33139;DHT22;19501;50.948;5.316;2024-01-07T06:57:05;2.80;99.90
33139;DHT22;19501;50.948;5.316;2024-01-07T06:59:30;2.90;99.90
33139;DHT22;19501;50.948;5.316;2024-01-07T07:01:56;2.90;99.90
33139;DHT22;19501;50.948;5.316;2024-01-07T07:04:22;2.90;99.90
33139;DHT22;19501;50.948;5.316;2024-01-07T07:06:48;2.80;99.90
33139;DHT22;19501;50.948;5.316;2024-01-07T07:09:14;2.80;99.90
33139;DHT22;19501;50.948;5.316;2024-01-07T07:11:40;2.80;99.90
33139;DHT22;19501;50.948;5.316;2024-01-07T07:14:06;2.90;99.90
33139;DHT22;19501;50.948;5.316;2024-01-07T07:16:32;2.80;99.90
33139;DHT22;19501;50.948;5.316;2024-01-07T07:18:57;2.80;99.90
33139;DHT22;19501;50.948;5.316;2024-01-07T07:21:23;2.80;99.90
33139;DHT22;19501;50.948;5.316;2024-01-07T07:23:49;2.70;99.90
33139;DHT22;19501;50.948;5.316;2024-01-07T07:26:14;2.80;99.90
33139;DHT22;19501;50.948;5.316;2024-01-07T07:28:40;2.70;99.90
33139;DHT22;19501;50.948;5.316;2024-01-07T07:31:05;2.70;99.90
33139;DHT22;19501;50.948;5.316;2024-01-07T07:33:31;2.70;99.90
33139;DHT22;19501;50.948;5.316;2024-01-07T07:35:57;2.60;99.90
33139;DHT22;19501;50.948;5.316;2024-01-07T07:38:22;2.70;99.90
33139;DHT22;19501;50.948;5.316;2024-01-07T07:40:48;2.80;99.90
33139;DHT22;19501;50.948;5.316;2024-01-07T07:43:19;2.70;99.90
33139;DHT22;19501;50.948;5.316;2024-01-07T07:45:46;2.70;99.90
33139;DHT22;19501;50.948;5.316;2024-01-07T07:48:11;2.70;99.90
33139;DHT22;19501;50.948;5.316;2024-01-07T07:50:37;2.60;99.90
33139;DHT22;19501;50.948;5.316;2024-01-07T07:53:02;2.50;99.90
33139;DHT22;19501;50.948;5.316;2024-01-07T07:55:28;2.50;99.90
33139;DHT22;19501;50.948;5.316;2024-01-07T07:57:54;2.50;99.90
33139;DHT22;19501;50.948;5.316;2024-01-07T08:00:20;2.50;99.90
33139;DHT22;19501;50.948;5.316;2024-01-07T08:02:45;2.50;99.90
33139;DHT22;19501;50.948;5.316;2024-01-07T08:05:11;2.50;99.90
33139;DHT22;19501;50.948;5.316;2024-01-07T08:07:37;2.70;99.90
33139;DHT22;19501;50.948;5.316;2024-01-07T08:10:03;2.50;99.90
33139;DHT22;19501;50.948;5.316;2024-01-07T08:12:28;2.50;99.90
33139;DHT22;19501;50.948;5.316;2024-01-07T08:14:54;2.60;99.90
33139;DHT22;19501;50.948;5.316;2024-01-07T08:17:20;2.50;99.90
33139;DHT22;19501;50.948;5.316;2024-01-07T08:19:48;2.50;99.90
33139;DHT22;19501;50.948;5.316;2024-01-07T08:22:13;2.50;99.90
33139;DHT22;19501;50.948;5.316;2024-01-07T08:24:39;2.50;99.90
33139;DHT22;19501;50.948;5.316;2024-01-07T08:27:05;2.60;99.90
33139;DHT22;19501;50.948;5.316;2024-01-07T08:29:31;2.60;99.90
33139;DHT22;19501;50.948;5.316;2024-01-07T08:31:56;2.50;99.90
33139;DHT22;19501;50.948;5.316;2024-01-07T08:34:22;2.50;99.90
33139;DHT22;19501;50.948;5.316;2024-01-07T08:36:47;2.70;99.90
33139;DHT22;19501;50.948;5.316;2024-01-07T08:39:14;2.70;99.90
33139;DHT22;19501;50.948;5.316;2024-01-07T08:41:40;2.40;99.90
33139;DHT22;19501;50.948;5.316;2024-01-07T08:44:06;2.40;99.90
33139;DHT22;19501;50.948;5.316;2024-01-07T08:46:34;2.40;99.90
33139;DHT22;19501;50.948;5.316;2024-01-07T08:49:00;2.30;99.90
33139;DHT22;19501;50.948;5.316;2024-01-07T08:51:25;2.30;99.90
33139;DHT22;19501;50.948;5.316;2024-01-07T08:53:53;2.30;99.90
33139;DHT22;19501;50.948;5.316;2024-01-07T08:56:19;2.30;99.90
33139;DHT22;19501;50.948;5.316;2024-01-07T08:58:44;2.30;99.90
33139;DHT22;19501;50.948;5.316;2024-01-07T09:01:10;2.30;99.90
33139;DHT22;19501;50.948;5.316;2024-01-07T09:03:36;2.40;99.90
33139;DHT22;19501;50.948;5.316;2024-01-07T09:06:01;2.30;99.90
33139;DHT22;19501;50.948;5.316;2024-01-07T09:08:27;2.50;99.90
33139;DHT22;19501;50.948;5.316;2024-01-07T09:10:53;2.40;99.90
33139;DHT22;19501;50.948;5.316;2024-01-07T09:13:22;2.40;99.90
33139;DHT22;19501;50.948;5.316;2024-01-07T09:15:47;2.30;99.90
33139;DHT22;19501;50.948;5.316;2024-01-07T09:18:13;2.30;99.90
33139;DHT22;19501;50.948;5.316;2024-01-07T09:20:39;2.20;99.90
33139;DHT22;19501;50.948;5.316;2024-01-07T09:23:05;2.30;99.90
33139;DHT22;19501;50.948;5.316;2024-01-07T09:25:30;2.40;99.90
33139;DHT22;19501;50.948;5.316;2024-01-07T09:27:56;2.40;99.90
33139;DHT22;19501;50.948;5.316;2024-01-07T09:30:24;2.40;99.90
33139;DHT22;19501;50.948;5.316;2024-01-07T09:32:50;2.40;99.90
33139;DHT22;19501;50.948;5.316;2024-01-07T09:35:15;2.30;99.90
33139;DHT22;19501;50.948;5.316;2024-01-07T09:37:43;2.30;99.90
33139;DHT22;19501;50.948;5.316;2024-01-07T09:40:09;2.20;99.90
33139;DHT22;19501;50.948;5.316;2024-01-07T09:42:35;2.20;99.90
33139;DHT22;19501;50.948;5.316;2024-01-07T09:45:04;2.20;99.90
33139;DHT22;19501;50.948;5.316;2024-01-07T09:47:31;2.20;99.90
33139;DHT22;19501;50.948;5.316;2024-01-07T09:49:56;2.20;99.90
33139;DHT22;19501;50.948;5.316;2024-01-07T09:52:22;2.20;99.90
33139;DHT22;19501;50.948;5.316;2024-01-07T09:54:51;2.30;99.90
33139;DHT22;19501;50.948;5.316;2024-01-07T09:57:18;2.30;99.90
33139;DHT22;19501;50.948;5.316;2024-01-07T09:59:45;2.40;99.90
33139;DHT22;19501;50.948;5.316;2024-01-07T10:02:12;2.40;99.90
33139;DHT22;19501;50.948;5.316;2024-01-07T10:04:37;2.30;99.90
33139;DHT22;19501;50.948;5.316;2024-01-07T10:07:06;2.30;99.90
33139;DHT22;19501;50.948;5.316;2024-01-07T10:09:33;2.30;99.90
33139;DHT22;19501;50.948;5.316;2024-01-07T10:11:59;2.30;99.90
33139;DHT22;19501;50.948;5.316;2024-01-07T10:14:25;2.30;99.90
33139;DHT22;19501;50.948;5.316;2024-01-07T10:16:54;2.30;99.90
33139;DHT22;19501;50.948;5.316;2024-01-07T10:19:21;2.40;99.90
33139;DHT22;19501;50.948;5.316;2024-01-07T10:22:01;2.40;99.90
33139;DHT22;19501;50.948;5.316;2024-01-07T10:24:38;2.40;99.90
33139;DHT22;19501;50.948;5.316;2024-01-07T10:27:05;2.40;99.90
33139;DHT22;19501;50.948;5.316;2024-01-07T10:29:31;2.40;99.90
33139;DHT22;19501;50.948;5.316;2024-01-07T10:32:00;2.50;99.90
33139;DHT22;19501;50.948;5.316;2024-01-07T10:34:32;2.40;99.90
33139;DHT22;19501;50.948;5.316;2024-01-07T10:37:03;2.60;99.90
33139;DHT22;19501;50.948;5.316;2024-01-07T10:39:30;2.60;99.90
33139;DHT22;19501;50.948;5.316;2024-01-07T10:41:57;2.70;99.90
33139;DHT22;19501;50.948;5.316;2024-01-07T10:44:32;2.50;99.90
33139;DHT22;19501;50.948;5.316;2024-01-07T10:46:59;2.60;99.90
33139;DHT22;19501;50.948;5.316;2024-01-07T10:49:28;2.50;99.90
33139;DHT22;19501;50.948;5.316;2024-01-07T10:54:29;2.50;99.90
33139;DHT22;19501;50.948;5.316;2024-01-07T10:56:58;2.50;99.90
33139;DHT22;19501;50.948;5.316;2024-01-07T10:59:27;2.40;99.90
33139;DHT22;19501;50.948;5.316;2024-01-07T11:01:54;2.50;99.90
33139;DHT22;19501;50.948;5.316;2024-01-07T11:04:29;2.50;99.90
33139;DHT22;19501;50.948;5.316;2024-01-07T11:12:38;2.40;99.90
33139;DHT22;19501;50.948;5.316;2024-01-07T11:15:04;2.60;99.90
33139;DHT22;19501;50.948;5.316;2024-01-07T11:20:05;2.20;99.90
33139;DHT22;19501;50.948;5.316;2024-01-07T11:22:31;2.20;99.90
33139;DHT22;19501;50.948;5.316;2024-01-07T11:24:59;2.20;99.90
33139;DHT22;19501;50.948;5.316;2024-01-07T11:27:28;2.30;99.90
33139;DHT22;19501;50.948;5.316;2024-01-07T11:30:07;2.20;99.90
33139;DHT22;19501;50.948;5.316;2024-01-07T11:32:34;2.10;99.90
33139;DHT22;19501;50.948;5.316;2024-01-07T11:35:03;2.10;99.90
33139;DHT22;19501;50.948;5.316;2024-01-07T11:37:29;2.10;99.90
33139;DHT22;19501;50.948;5.316;2024-01-07T11:39:56;2.10;99.90
33139;DHT22;19501;50.948;5.316;2024-01-07T11:42:25;2.20;99.90
33139;DHT22;19501;50.948;5.316;2024-01-07T11:44:53;2.20;99.90
33139;DHT22;19501;50.948;5.316;2024-01-07T11:47:20;2.20;99.90
33139;DHT22;19501;50.948;5.316;2024-01-07T11:49:46;2.10;99.90
33139;DHT22;19501;50.948;5.316;2024-01-07T11:52:14;2.10;99.90
33139;DHT22;19501;50.948;5.316;2024-01-07T11:54:40;2.10;99.90
33139;DHT22;19501;50.948;5.316;2024-01-07T11:57:06;2.10;99.90
33139;DHT22;19501;50.948;5.316;2024-01-07T11:59:33;2.10;99.90
33139;DHT22;19501;50.948;5.316;2024-01-07T12:02:00;2.10;99.90
33139;DHT22;19501;50.948;5.316;2024-01-07T12:04:27;2.10;99.90
33139;DHT22;19501;50.948;5.316;2024-01-07T12:06:53;2.20;99.90
33139;DHT22;19501;50.948;5.316;2024-01-07T12:09:19;2.20;99.90
33139;DHT22;19501;50.948;5.316;2024-01-07T12:11:45;2.20;99.90
33139;DHT22;19501;50.948;5.316;2024-01-07T12:14:11;2.30;99.90
33139;DHT22;19501;50.948;5.316;2024-01-07T12:16:37;2.20;99.90
33139;DHT22;19501;50.948;5.316;2024-01-07T12:19:03;2.10;99.90
33139;DHT22;19501;50.948;5.316;2024-01-07T12:21:29;2.20;99.90
33139;DHT22;19501;50.948;5.316;2024-01-07T12:23:55;2.20;99.90
33139;DHT22;19501;50.948;5.316;2024-01-07T12:26:26;2.20;99.90
33139;DHT22;19501;50.948;5.316;2024-01-07T12:28:58;2.10;99.90
33139;DHT22;19501;50.948;5.316;2024-01-07T12:31:31;2.10;99.90
33139;DHT22;19501;50.948;5.316;2024-01-07T12:33:57;2.00;99.90
33139;DHT22;19501;50.948;5.316;2024-01-07T12:36:23;2.00;99.90
33139;DHT22;19501;50.948;5.316;2024-01-07T12:38:50;2.00;99.90
33139;DHT22;19501;50.948;5.316;2024-01-07T12:41:17;2.00;99.90
33139;DHT22;19501;50.948;5.316;2024-01-07T12:43:43;2.20;99.90
33139;DHT22;19501;50.948;5.316;2024-01-07T12:46:09;2.20;99.90
33139;DHT22;19501;50.948;5.316;2024-01-07T12:48:34;2.10;99.90
33139;DHT22;19501;50.948;5.316;2024-01-07T12:51:00;2.20;99.90
33139;DHT22;19501;50.948;5.316;2024-01-07T12:53:26;2.20;99.90
33139;DHT22;19501;50.948;5.316;2024-01-07T12:55:53;2.20;99.90
33139;DHT22;19501;50.948;5.316;2024-01-07T12:58:18;2.30;99.90
33139;DHT22;19501;50.948;5.316;2024-01-07T13:00:44;2.40;99.90
33139;DHT22;19501;50.948;5.316;2024-01-07T13:03:10;2.40;99.90
33139;DHT22;19501;50.948;5.316;2024-01-07T13:05:45;2.50;99.90
33139;DHT22;19501;50.948;5.316;2024-01-07T13:08:12;2.50;99.90
33139;DHT22;19501;50.948;5.316;2024-01-07T13:10:38;2.30;99.90
33139;DHT22;19501;50.948;5.316;2024-01-07T13:13:04;2.30;99.90
33139;DHT22;19501;50.948;5.316;2024-01-07T13:15:30;2.20;99.90
33139;DHT22;19501;50.948;5.316;2024-01-07T13:17:57;2.30;99.90
33139;DHT22;19501;50.948;5.316;2024-01-07T13:20:22;2.10;99.90
33139;DHT22;19501;50.948;5.316;2024-01-07T13:22:48;2.00;99.90
33139;DHT22;19501;50.948;5.316;2024-01-07T13:25:13;2.10;99.90
33139;DHT22;19501;50.948;5.316;2024-01-07T13:27:39;2.10;99.90
33139;DHT22;19501;50.948;5.316;2024-01-07T13:30:06;2.10;99.90
33139;DHT22;19501;50.948;5.316;2024-01-07T13:32:32;2.10;99.90
33139;DHT22;19501;50.948;5.316;2024-01-07T13:35:02;2.10;99.90
33139;DHT22;19501;50.948;5.316;2024-01-07T13:37:28;2.10;99.90
33139;DHT22;19501;50.948;5.316;2024-01-07T13:39:54;2.10;99.90
33139;DHT22;19501;50.948;5.316;2024-01-07T13:42:19;2.10;99.90
33139;DHT22;19501;50.948;5.316;2024-01-07T13:44:47;2.10;99.90
33139;DHT22;19501;50.948;5.316;2024-01-07T13:47:14;2.10;99.90
33139;DHT22;19501;50.948;5.316;2024-01-07T13:49:43;2.10;99.90
33139;DHT22;19501;50.948;5.316;2024-01-07T13:52:10;2.10;99.90
33139;DHT22;19501;50.948;5.316;2024-01-07T13:54:36;2.00;99.90
33139;DHT22;19501;50.948;5.316;2024-01-07T13:57:03;2.00;99.90
33139;DHT22;19501;50.948;5.316;2024-01-07T13:59:29;2.10;99.90
33139;DHT22;19501;50.948;5.316;2024-01-07T14:01:55;2.10;99.90
33139;DHT22;19501;50.948;5.316;2024-01-07T14:04:23;2.00;99.90
33139;DHT22;19501;50.948;5.316;2024-01-07T14:06:56;2.10;99.90
33139;DHT22;19501;50.948;5.316;2024-01-07T14:09:22;2.10;99.90
33139;DHT22;19501;50.948;5.316;2024-01-07T14:11:48;2.10;99.90
33139;DHT22;19501;50.948;5.316;2024-01-07T14:14:14;2.20;99.90
33139;DHT22;19501;50.948;5.316;2024-01-07T14:16:39;2.10;99.90
33139;DHT22;19501;50.948;5.316;2024-01-07T14:19:06;2.00;99.90
33139;DHT22;19501;50.948;5.316;2024-01-07T14:21:31;2.00;99.90
33139;DHT22;19501;50.948;5.316;2024-01-07T14:23:57;2.00;99.90
33139;DHT22;19501;50.948;5.316;2024-01-07T14:26:23;2.20;99.90
33139;DHT22;19501;50.948;5.316;2024-01-07T14:28:52;1.90;99.90
33139;DHT22;19501;50.948;5.316;2024-01-07T14:31:17;1.80;99.90
33139;DHT22;19501;50.948;5.316;2024-01-07T14:33:43;1.80;99.90
33139;DHT22;19501;50.948;5.316;2024-01-07T14:36:09;1.80;99.90
33139;DHT22;19501;50.948;5.316;2024-01-07T14:38:44;2.00;99.90
33139;DHT22;19501;50.948;5.316;2024-01-07T14:41:11;1.70;99.90
33139;DHT22;19501;50.948;5.316;2024-01-07T14:43:37;1.60;99.90
33139;DHT22;19501;50.948;5.316;2024-01-07T14:46:03;1.60;99.90
33139;DHT22;19501;50.948;5.316;2024-01-07T14:48:29;1.60;99.90
33139;DHT22;19501;50.948;5.316;2024-01-07T14:50:55;1.50;99.90
33139;DHT22;19501;50.948;5.316;2024-01-07T14:53:21;1.50;99.90
33139;DHT22;19501;50.948;5.316;2024-01-07T14:55:48;1.50;99.90
33139;DHT22;19501;50.948;5.316;2024-01-07T14:58:14;1.40;99.90
33139;DHT22;19501;50.948;5.316;2024-01-07T15:00:40;1.50;99.90
33139;DHT22;19501;50.948;5.316;2024-01-07T15:03:06;1.60;99.90
33139;DHT22;19501;50.948;5.316;2024-01-07T15:05:31;1.60;99.90
33139;DHT22;19501;50.948;5.316;2024-01-07T15:07:57;1.50;99.90
33139;DHT22;19501;50.948;5.316;2024-01-07T15:10:23;1.40;99.90
33139;DHT22;19501;50.948;5.316;2024-01-07T15:12:48;1.40;99.90
33139;DHT22;19501;50.948;5.316;2024-01-07T15:15:15;1.40;99.90
33139;DHT22;19501;50.948;5.316;2024-01-07T15:17:42;1.50;99.90
33139;DHT22;19501;50.948;5.316;2024-01-07T15:20:08;1.40;99.90
33139;DHT22;19501;50.948;5.316;2024-01-07T15:22:34;1.20;99.90
33139;DHT22;19501;50.948;5.316;2024-01-07T15:25:00;1.20;99.90
33139;DHT22;19501;50.948;5.316;2024-01-07T15:27:25;1.10;99.90
33139;DHT22;19501;50.948;5.316;2024-01-07T15:29:51;1.10;99.90
33139;DHT22;19501;50.948;5.316;2024-01-07T15:32:17;1.20;99.90
33139;DHT22;19501;50.948;5.316;2024-01-07T15:34:42;1.20;99.90
33139;DHT22;19501;50.948;5.316;2024-01-07T15:37:08;1.10;99.90
33139;DHT22;19501;50.948;5.316;2024-01-07T15:39:34;1.00;99.90
33139;DHT22;19501;50.948;5.316;2024-01-07T15:42:00;1.00;99.90
33139;DHT22;19501;50.948;5.316;2024-01-07T15:44:26;1.00;99.90
33139;DHT22;19501;50.948;5.316;2024-01-07T15:46:52;0.90;99.90
33139;DHT22;19501;50.948;5.316;2024-01-07T15:49:18;0.90;99.90